sensor_id;sensor_type;location;lat;lon;timestamp;P1;durP1;ratioP1;P2;durP2;ratioP2
27802;SDS011;15182;48.174;11.562;2022-10-13T00:01:20;16.90;;;10.13;;
27802;SDS011;15182;48.174;11.562;2022-10-13T00:03:52;12.67;;;10.10;;
27802;SDS011;15182;48.174;11.562;2022-10-13T00:06:24;16.80;;;10.27;;
27802;SDS011;15182;48.174;11.562;2022-10-13T00:08:57;13.17;;;9.70;;
27802;SDS011;15182;48.174;11.562;2022-10-13T00:11:30;13.70;;;10.47;;
27802;SDS011;15182;48.174;11.562;2022-10-13T00:14:02;15.20;;;10.53;;
27802;SDS011;15182;48.174;11.562;2022-10-13T00:16:34;19.60;;;10.50;;
27802;SDS011;15182;48.174;11.562;2022-10-13T00:19:05;18.77;;;10.87;;
27802;SDS011;15182;48.174;11.562;2022-10-13T00:21:37;14.40;;;11.00;;
27802;SDS011;15182;48.174;11.562;2022-10-13T00:24:09;13.33;;;10.83;;
27802;SDS011;15182;48.174;11.562;2022-10-13T00:26:42;17.77;;;10.87;;
27802;SDS011;15182;48.174;11.562;2022-10-13T00:29:18;19.13;;;11.73;;
27802;SDS011;15182;48.174;11.562;2022-10-13T00:31:49;13.07;;;10.53;;
27802;SDS011;15182;48.174;11.562;2022-10-13T00:34:20;15.57;;;10.53;;
27802;SDS011;15182;48.174;11.562;2022-10-13T00:36:52;16.10;;;10.87;;
27802;SDS011;15182;48.174;11.562;2022-10-13T00:39:23;13.83;;;10.57;;
27802;SDS011;15182;48.174;11.562;2022-10-13T00:41:56;14.87;;;10.47;;
27802;SDS011;15182;48.174;11.562;2022-10-13T00:47:27;12.93;;;9.73;;
27802;SDS011;15182;48.174;11.562;2022-10-13T00:50:05;18.60;;;10.33;;
27802;SDS011;15182;48.174;11.562;2022-10-13T00:52:42;12.33;;;9.67;;
27802;SDS011;15182;48.174;11.562;2022-10-13T00:55:15;15.07;;;10.23;;
27802;SDS011;15182;48.174;11.562;2022-10-13T00:57:51;17.00;;;10.83;;
27802;SDS011;15182;48.174;11.562;2022-10-13T01:00:28;13.23;;;10.43;;
27802;SDS011;15182;48.174;11.562;2022-10-13T01:03:00;14.33;;;10.20;;
27802;SDS011;15182;48.174;11.562;2022-10-13T01:05:31;13.83;;;9.57;;
27802;SDS011;15182;48.174;11.562;2022-10-13T01:08:05;12.60;;;9.47;;
27802;SDS011;15182;48.174;11.562;2022-10-13T01:10:39;15.43;;;10.87;;
27802;SDS011;15182;48.174;11.562;2022-10-13T01:13:21;10.93;;;9.63;;
27802;SDS011;15182;48.174;11.562;2022-10-13T01:16:05;11.93;;;9.73;;
27802;SDS011;15182;48.174;11.562;2022-10-13T01:18:44;11.63;;;9.77;;
27802;SDS011;15182;48.174;11.562;2022-10-13T01:21:23;13.00;;;9.37;;
27802;SDS011;15182;48.174;11.562;2022-10-13T01:24:13;10.20;;;9.07;;
27802;SDS011;15182;48.174;11.562;2022-10-13T01:30:20;13.57;;;9.50;;
27802;SDS011;15182;48.174;11.562;2022-10-13T01:32:58;15.00;;;9.60;;
27802;SDS011;15182;48.174;11.562;2022-10-13T01:35:43;12.90;;;10.03;;
27802;SDS011;15182;48.174;11.562;2022-10-13T01:38:24;13.07;;;9.20;;
27802;SDS011;15182;48.174;11.562;2022-10-13T01:41:01;17.63;;;10.23;;
27802;SDS011;15182;48.174;11.562;2022-10-13T01:43:37;12.80;;;10.50;;
27802;SDS011;15182;48.174;11.562;2022-10-13T01:46:14;14.20;;;10.00;;
27802;SDS011;15182;48.174;11.562;2022-10-13T01:48:49;14.77;;;10.67;;
27802;SDS011;15182;48.174;11.562;2022-10-13T01:51:24;14.47;;;10.30;;
27802;SDS011;15182;48.174;11.562;2022-10-13T01:53:58;12.20;;;10.00;;
27802;SDS011;15182;48.174;11.562;2022-10-13T01:56:29;15.93;;;9.87;;
27802;SDS011;15182;48.174;11.562;2022-10-13T01:59:02;16.90;;;9.97;;
27802;SDS011;15182;48.174;11.562;2022-10-13T02:01:44;12.00;;;9.83;;
27802;SDS011;15182;48.174;11.562;2022-10-13T02:04:24;11.93;;;9.27;;
27802;SDS011;15182;48.174;11.562;2022-10-13T02:07:14;13.80;;;9.03;;
27802;SDS011;15182;48.174;11.562;2022-10-13T02:09:55;15.23;;;10.17;;
27802;SDS011;15182;48.174;11.562;2022-10-13T02:12:37;10.20;;;9.07;;
27802;SDS011;15182;48.174;11.562;2022-10-13T02:15:15;12.87;;;9.13;;
27802;SDS011;15182;48.174;11.562;2022-10-13T02:17:52;11.83;;;9.20;;
27802;SDS011;15182;48.174;11.562;2022-10-13T02:20:25;11.00;;;9.47;;
27802;SDS011;15182;48.174;11.562;2022-10-13T02:22:58;13.33;;;9.37;;
27802;SDS011;15182;48.174;11.562;2022-10-13T02:25:35;14.83;;;9.67;;
27802;SDS011;15182;48.174;11.562;2022-10-13T02:28:07;11.60;;;8.83;;
27802;SDS011;15182;48.174;11.562;2022-10-13T02:30:43;13.00;;;9.23;;
27802;SDS011;15182;48.174;11.562;2022-10-13T02:33:15;12.07;;;9.27;;
27802;SDS011;15182;48.174;11.562;2022-10-13T02:35:46;12.43;;;9.30;;
27802;SDS011;15182;48.174;11.562;2022-10-13T02:38:17;12.67;;;9.17;;
27802;SDS011;15182;48.174;11.562;2022-10-13T02:40:49;17.53;;;9.93;;
27802;SDS011;15182;48.174;11.562;2022-10-13T02:43:20;15.83;;;10.43;;
27802;SDS011;15182;48.174;11.562;2022-10-13T02:45:51;13.17;;;9.47;;
27802;SDS011;15182;48.174;11.562;2022-10-13T02:48:24;13.83;;;9.30;;
27802;SDS011;15182;48.174;11.562;2022-10-13T02:50:55;12.70;;;9.40;;
27802;SDS011;15182;48.174;11.562;2022-10-13T02:53:26;12.80;;;8.43;;
27802;SDS011;15182;48.174;11.562;2022-10-13T02:55:58;12.00;;;8.33;;
27802;SDS011;15182;48.174;11.562;2022-10-13T02:58:30;10.03;;;8.23;;
27802;SDS011;15182;48.174;11.562;2022-10-13T03:01:05;11.10;;;9.27;;
27802;SDS011;15182;48.174;11.562;2022-10-13T03:03:40;9.37;;;8.47;;
27802;SDS011;15182;48.174;11.562;2022-10-13T03:06:12;9.83;;;8.23;;
27802;SDS011;15182;48.174;11.562;2022-10-13T03:08:44;10.20;;;8.90;;
27802;SDS011;15182;48.174;11.562;2022-10-13T03:11:15;9.43;;;8.53;;
27802;SDS011;15182;48.174;11.562;2022-10-13T03:13:46;11.53;;;9.40;;
27802;SDS011;15182;48.174;11.562;2022-10-13T03:16:17;11.90;;;8.13;;
27802;SDS011;15182;48.174;11.562;2022-10-13T03:18:50;9.67;;;8.00;;
27802;SDS011;15182;48.174;11.562;2022-10-13T03:21:21;8.40;;;7.50;;
27802;SDS011;15182;48.174;11.562;2022-10-13T03:23:53;10.67;;;8.47;;
27802;SDS011;15182;48.174;11.562;2022-10-13T03:26:24;10.97;;;8.30;;
27802;SDS011;15182;48.174;11.562;2022-10-13T03:28:56;9.33;;;8.27;;
27802;SDS011;15182;48.174;11.562;2022-10-13T03:31:28;11.10;;;7.83;;
27802;SDS011;15182;48.174;11.562;2022-10-13T03:34:02;13.27;;;8.53;;
27802;SDS011;15182;48.174;11.562;2022-10-13T03:36:33;9.33;;;7.70;;
27802;SDS011;15182;48.174;11.562;2022-10-13T03:39:05;7.20;;;6.57;;
27802;SDS011;15182;48.174;11.562;2022-10-13T03:41:36;7.40;;;6.77;;
27802;SDS011;15182;48.174;11.562;2022-10-13T03:44:08;8.23;;;7.23;;
27802;SDS011;15182;48.174;11.562;2022-10-13T03:46:39;7.40;;;6.80;;
27802;SDS011;15182;48.174;11.562;2022-10-13T03:49:12;6.90;;;6.43;;
27802;SDS011;15182;48.174;11.562;2022-10-13T03:51:43;7.57;;;7.00;;
27802;SDS011;15182;48.174;11.562;2022-10-13T03:54:15;7.23;;;6.63;;
27802;SDS011;15182;48.174;11.562;2022-10-13T03:56:47;8.20;;;6.93;;
27802;SDS011;15182;48.174;11.562;2022-10-13T03:59:18;7.63;;;6.60;;
27802;SDS011;15182;48.174;11.562;2022-10-13T04:01:50;7.47;;;6.73;;
27802;SDS011;15182;48.174;11.562;2022-10-13T04:04:23;7.47;;;6.73;;
27802;SDS011;15182;48.174;11.562;2022-10-13T04:06:55;7.97;;;6.77;;
27802;SDS011;15182;48.174;11.562;2022-10-13T04:09:26;7.27;;;6.60;;
27802;SDS011;15182;48.174;11.562;2022-10-13T04:11:58;6.43;;;5.83;;
27802;SDS011;15182;48.174;11.562;2022-10-13T04:14:29;7.20;;;6.60;;
27802;SDS011;15182;48.174;11.562;2022-10-13T04:17:07;5.87;;;5.57;;
27802;SDS011;15182;48.174;11.562;2022-10-13T04:19:39;6.83;;;6.33;;
27802;SDS011;15182;48.174;11.562;2022-10-13T04:22:11;6.17;;;5.77;;
27802;SDS011;15182;48.174;11.562;2022-10-13T04:24:46;6.20;;;5.70;;
27802;SDS011;15182;48.174;11.562;2022-10-13T04:27:18;5.50;;;5.17;;
27802;SDS011;15182;48.174;11.562;2022-10-13T04:29:49;6.00;;;5.60;;
27802;SDS011;15182;48.174;11.562;2022-10-13T04:32:20;6.33;;;5.83;;
27802;SDS011;15182;48.174;11.562;2022-10-13T04:34:53;6.43;;;5.93;;
27802;SDS011;15182;48.174;11.562;2022-10-13T04:37:24;5.77;;;5.43;;
27802;SDS011;15182;48.174;11.562;2022-10-13T04:39:55;5.63;;;5.33;;
27802;SDS011;15182;48.174;11.562;2022-10-13T04:42:27;6.40;;;5.90;;
27802;SDS011;15182;48.174;11.562;2022-10-13T04:44:58;6.53;;;6.03;;
27802;SDS011;15182;48.174;11.562;2022-10-13T04:47:29;6.63;;;6.23;;
27802;SDS011;15182;48.174;11.562;2022-10-13T04:50:04;7.17;;;6.00;;
27802;SDS011;15182;48.174;11.562;2022-10-13T04:52:37;6.67;;;6.07;;
27802;SDS011;15182;48.174;11.562;2022-10-13T04:55:08;6.50;;;6.10;;
27802;SDS011;15182;48.174;11.562;2022-10-13T04:57:40;6.47;;;5.87;;
27802;SDS011;15182;48.174;11.562;2022-10-13T05:00:11;6.80;;;6.17;;
27802;SDS011;15182;48.174;11.562;2022-10-13T05:02:44;8.50;;;6.53;;
27802;SDS011;15182;48.174;11.562;2022-10-13T05:05:17;7.83;;;6.60;;
27802;SDS011;15182;48.174;11.562;2022-10-13T05:07:48;6.23;;;5.83;;
27802;SDS011;15182;48.174;11.562;2022-10-13T05:10:20;6.20;;;5.70;;
27802;SDS011;15182;48.174;11.562;2022-10-13T05:12:51;6.80;;;6.30;;
27802;SDS011;15182;48.174;11.562;2022-10-13T05:15:23;6.73;;;6.23;;
27802;SDS011;15182;48.174;11.562;2022-10-13T05:17:54;7.30;;;6.67;;
27802;SDS011;15182;48.174;11.562;2022-10-13T05:20:27;8.50;;;7.60;;
27802;SDS011;15182;48.174;11.562;2022-10-13T05:22:59;6.87;;;6.17;;
27802;SDS011;15182;48.174;11.562;2022-10-13T05:25:30;7.17;;;6.67;;
27802;SDS011;15182;48.174;11.562;2022-10-13T05:28:02;8.27;;;7.47;;
27802;SDS011;15182;48.174;11.562;2022-10-13T05:30:34;7.63;;;6.97;;
27802;SDS011;15182;48.174;11.562;2022-10-13T05:33:06;7.20;;;6.60;;
27802;SDS011;15182;48.174;11.562;2022-10-13T05:35:38;8.57;;;7.33;;
27802;SDS011;15182;48.174;11.562;2022-10-13T05:38:10;11.97;;;7.30;;
27802;SDS011;15182;48.174;11.562;2022-10-13T05:40:42;9.83;;;7.27;;
27802;SDS011;15182;48.174;11.562;2022-10-13T05:43:14;8.53;;;7.70;;
27802;SDS011;15182;48.174;11.562;2022-10-13T05:45:45;9.47;;;7.90;;
27802;SDS011;15182;48.174;11.562;2022-10-13T05:48:20;10.37;;;8.37;;
27802;SDS011;15182;48.174;11.562;2022-10-13T05:50:53;9.40;;;8.40;;
27802;SDS011;15182;48.174;11.562;2022-10-13T05:53:28;8.63;;;7.83;;
27802;SDS011;15182;48.174;11.562;2022-10-13T05:56:04;8.07;;;7.37;;
27802;SDS011;15182;48.174;11.562;2022-10-13T05:58:41;8.70;;;7.83;;
27802;SDS011;15182;48.174;11.562;2022-10-13T06:01:16;12.20;;;8.40;;
27802;SDS011;15182;48.174;11.562;2022-10-13T06:03:51;9.73;;;8.50;;
27802;SDS011;15182;48.174;11.562;2022-10-13T06:06:28;8.47;;;7.70;;
27802;SDS011;15182;48.174;11.562;2022-10-13T06:08:58;12.07;;;8.53;;
27802;SDS011;15182;48.174;11.562;2022-10-13T06:11:30;9.67;;;8.50;;
27802;SDS011;15182;48.174;11.562;2022-10-13T06:14:01;10.20;;;9.20;;
27802;SDS011;15182;48.174;11.562;2022-10-13T06:16:33;9.80;;;8.23;;
27802;SDS011;15182;48.174;11.562;2022-10-13T06:19:05;10.23;;;9.20;;
27802;SDS011;15182;48.174;11.562;2022-10-13T06:21:38;10.80;;;9.10;;
27802;SDS011;15182;48.174;11.562;2022-10-13T06:24:10;12.03;;;8.63;;
27802;SDS011;15182;48.174;11.562;2022-10-13T06:26:41;8.67;;;7.80;;
27802;SDS011;15182;48.174;11.562;2022-10-13T06:29:12;10.13;;;8.97;;
27802;SDS011;15182;48.174;11.562;2022-10-13T06:31:44;16.03;;;9.00;;
27802;SDS011;15182;48.174;11.562;2022-10-13T06:34:15;12.20;;;9.33;;
27802;SDS011;15182;48.174;11.562;2022-10-13T06:36:48;10.27;;;8.70;;
27802;SDS011;15182;48.174;11.562;2022-10-13T06:39:19;9.97;;;8.97;;
27802;SDS011;15182;48.174;11.562;2022-10-13T06:41:51;12.50;;;9.30;;
27802;SDS011;15182;48.174;11.562;2022-10-13T06:44:28;14.63;;;9.37;;
27802;SDS011;15182;48.174;11.562;2022-10-13T06:47:00;12.80;;;9.70;;
27802;SDS011;15182;48.174;11.562;2022-10-13T06:49:33;13.40;;;9.07;;
27802;SDS011;15182;48.174;11.562;2022-10-13T06:52:06;10.00;;;9.00;;
27802;SDS011;15182;48.174;11.562;2022-10-13T06:54:37;11.70;;;8.90;;
27802;SDS011;15182;48.174;11.562;2022-10-13T06:57:08;11.37;;;9.97;;
27802;SDS011;15182;48.174;11.562;2022-10-13T06:59:39;14.20;;;9.60;;
27802;SDS011;15182;48.174;11.562;2022-10-13T07:02:10;10.07;;;8.70;;
27802;SDS011;15182;48.174;11.562;2022-10-13T07:04:41;10.47;;;8.70;;
27802;SDS011;15182;48.174;11.562;2022-10-13T07:07:15;14.87;;;8.63;;
27802;SDS011;15182;48.174;11.562;2022-10-13T07:09:47;10.73;;;8.87;;
27802;SDS011;15182;48.174;11.562;2022-10-13T07:12:18;13.43;;;9.80;;
27802;SDS011;15182;48.174;11.562;2022-10-13T07:14:50;9.97;;;8.90;;
27802;SDS011;15182;48.174;11.562;2022-10-13T07:17:21;13.43;;;8.93;;
27802;SDS011;15182;48.174;11.562;2022-10-13T07:19:52;10.43;;;8.60;;
27802;SDS011;15182;48.174;11.562;2022-10-13T07:22:25;14.30;;;10.50;;
27802;SDS011;15182;48.174;11.562;2022-10-13T07:24:56;16.27;;;10.67;;
27802;SDS011;15182;48.174;11.562;2022-10-13T07:27:28;12.53;;;9.93;;
27802;SDS011;15182;48.174;11.562;2022-10-13T07:29:59;13.53;;;10.33;;
27802;SDS011;15182;48.174;11.562;2022-10-13T07:32:32;14.93;;;10.20;;
27802;SDS011;15182;48.174;11.562;2022-10-13T07:35:05;18.70;;;10.83;;
27802;SDS011;15182;48.174;11.562;2022-10-13T07:37:39;14.37;;;9.83;;
27802;SDS011;15182;48.174;11.562;2022-10-13T07:40:10;14.27;;;10.53;;
27802;SDS011;15182;48.174;11.562;2022-10-13T07:42:42;14.57;;;9.53;;
27802;SDS011;15182;48.174;11.562;2022-10-13T07:45:13;16.90;;;10.13;;
27802;SDS011;15182;48.174;11.562;2022-10-13T07:47:45;16.80;;;9.70;;
27802;SDS011;15182;48.174;11.562;2022-10-13T07:50:16;17.67;;;10.13;;
27802;SDS011;15182;48.174;11.562;2022-10-13T07:52:49;16.40;;;10.50;;
27802;SDS011;15182;48.174;11.562;2022-10-13T07:55:20;13.20;;;10.10;;
27802;SDS011;15182;48.174;11.562;2022-10-13T07:57:53;14.87;;;10.40;;
27802;SDS011;15182;48.174;11.562;2022-10-13T08:00:28;15.07;;;10.17;;
27802;SDS011;15182;48.174;11.562;2022-10-13T08:03:00;15.17;;;10.40;;
27802;SDS011;15182;48.174;11.562;2022-10-13T08:05:31;17.40;;;10.43;;
27802;SDS011;15182;48.174;11.562;2022-10-13T08:08:05;14.23;;;10.77;;
27802;SDS011;15182;48.174;11.562;2022-10-13T08:10:37;19.10;;;10.17;;
27802;SDS011;15182;48.174;11.562;2022-10-13T08:13:08;19.97;;;11.20;;
27802;SDS011;15182;48.174;11.562;2022-10-13T08:15:41;13.03;;;10.53;;
27802;SDS011;15182;48.174;11.562;2022-10-13T08:18:13;15.10;;;10.33;;
27802;SDS011;15182;48.174;11.562;2022-10-13T08:20:44;12.10;;;10.27;;
27802;SDS011;15182;48.174;11.562;2022-10-13T08:23:18;11.67;;;9.57;;
27802;SDS011;15182;48.174;11.562;2022-10-13T08:25:49;17.83;;;10.43;;
27802;SDS011;15182;48.174;11.562;2022-10-13T08:28:21;13.27;;;9.93;;
27802;SDS011;15182;48.174;11.562;2022-10-13T08:30:54;18.93;;;10.67;;
27802;SDS011;15182;48.174;11.562;2022-10-13T08:33:26;16.53;;;11.20;;
27802;SDS011;15182;48.174;11.562;2022-10-13T08:35:57;15.60;;;10.70;;
27802;SDS011;15182;48.174;11.562;2022-10-13T08:38:30;13.97;;;10.20;;
27802;SDS011;15182;48.174;11.562;2022-10-13T08:41:02;13.93;;;10.00;;
27802;SDS011;15182;48.174;11.562;2022-10-13T08:43:47;16.13;;;10.00;;
27802;SDS011;15182;48.174;11.562;2022-10-13T08:46:23;14.53;;;10.47;;
27802;SDS011;15182;48.174;11.562;2022-10-13T08:48:58;14.33;;;10.10;;
27802;SDS011;15182;48.174;11.562;2022-10-13T08:51:30;16.50;;;10.10;;
27802;SDS011;15182;48.174;11.562;2022-10-13T08:54:03;13.03;;;10.13;;
27802;SDS011;15182;48.174;11.562;2022-10-13T08:56:35;13.20;;;9.67;;
27802;SDS011;15182;48.174;11.562;2022-10-13T08:59:08;16.67;;;10.10;;
27802;SDS011;15182;48.174;11.562;2022-10-13T09:01:44;10.33;;;9.27;;
27802;SDS011;15182;48.174;11.562;2022-10-13T09:04:23;10.17;;;9.07;;
27802;SDS011;15182;48.174;11.562;2022-10-13T09:07:01;17.33;;;8.83;;
27802;SDS011;15182;48.174;11.562;2022-10-13T09:09:39;11.07;;;9.07;;
27802;SDS011;15182;48.174;11.562;2022-10-13T09:12:10;14.10;;;9.17;;
27802;SDS011;15182;48.174;11.562;2022-10-13T09:14:55;13.73;;;8.83;;
27802;SDS011;15182;48.174;11.562;2022-10-13T09:17:30;13.57;;;8.63;;
27802;SDS011;15182;48.174;11.562;2022-10-13T09:20:04;12.80;;;8.50;;
27802;SDS011;15182;48.174;11.562;2022-10-13T09:22:59;11.80;;;8.77;;
27802;SDS011;15182;48.174;11.562;2022-10-13T09:25:39;14.27;;;8.53;;
27802;SDS011;15182;48.174;11.562;2022-10-13T09:28:15;11.93;;;7.73;;
27802;SDS011;15182;48.174;11.562;2022-10-13T09:30:59;9.53;;;7.77;;
27802;SDS011;15182;48.174;11.562;2022-10-13T09:33:33;13.97;;;8.33;;
27802;SDS011;15182;48.174;11.562;2022-10-13T09:36:09;8.83;;;7.93;;
27802;SDS011;15182;48.174;11.562;2022-10-13T09:41:36;9.53;;;7.77;;
27802;SDS011;15182;48.174;11.562;2022-10-13T09:44:10;12.07;;;7.30;;
27802;SDS011;15182;48.174;11.562;2022-10-13T09:46:46;14.73;;;7.50;;
27802;SDS011;15182;48.174;11.562;2022-10-13T09:49:32;8.07;;;7.27;;
27802;SDS011;15182;48.174;11.562;2022-10-13T09:52:13;8.50;;;6.87;;
27802;SDS011;15182;48.174;11.562;2022-10-13T09:54:50;7.37;;;6.67;;
27802;SDS011;15182;48.174;11.562;2022-10-13T09:57:35;10.73;;;7.23;;
27802;SDS011;15182;48.174;11.562;2022-10-13T10:00:15;9.63;;;6.70;;
27802;SDS011;15182;48.174;11.562;2022-10-13T10:02:52;11.30;;;7.10;;
27802;SDS011;15182;48.174;11.562;2022-10-13T10:05:26;9.90;;;7.33;;
27802;SDS011;15182;48.174;11.562;2022-10-13T10:08:10;9.70;;;6.77;;
27802;SDS011;15182;48.174;11.562;2022-10-13T10:10:47;11.47;;;7.20;;
27802;SDS011;15182;48.174;11.562;2022-10-13T10:13:19;11.10;;;7.73;;
27802;SDS011;15182;48.174;11.562;2022-10-13T10:15:54;17.57;;;8.00;;
27802;SDS011;15182;48.174;11.562;2022-10-13T10:18:30;12.13;;;7.77;;
27802;SDS011;15182;48.174;11.562;2022-10-13T10:21:09;10.03;;;6.90;;
27802;SDS011;15182;48.174;11.562;2022-10-13T10:23:50;13.53;;;7.73;;
27802;SDS011;15182;48.174;11.562;2022-10-13T10:26:32;10.17;;;7.50;;
27802;SDS011;15182;48.174;11.562;2022-10-13T10:29:18;7.93;;;6.70;;
27802;SDS011;15182;48.174;11.562;2022-10-13T10:32:03;11.70;;;7.17;;
27802;SDS011;15182;48.174;11.562;2022-10-13T10:34:44;9.87;;;6.70;;
27802;SDS011;15182;48.174;11.562;2022-10-13T10:37:24;14.00;;;6.83;;
27802;SDS011;15182;48.174;11.562;2022-10-13T10:40:09;8.23;;;7.13;;
27802;SDS011;15182;48.174;11.562;2022-10-13T10:42:52;14.03;;;7.27;;
27802;SDS011;15182;48.174;11.562;2022-10-13T10:45:55;14.97;;;7.37;;
27802;SDS011;15182;48.174;11.562;2022-10-13T10:48:30;10.33;;;7.17;;
27802;SDS011;15182;48.174;11.562;2022-10-13T10:51:05;8.63;;;7.53;;
27802;SDS011;15182;48.174;11.562;2022-10-13T10:53:42;16.53;;;7.77;;
27802;SDS011;15182;48.174;11.562;2022-10-13T10:56:21;10.30;;;7.13;;
27802;SDS011;15182;48.174;11.562;2022-10-13T10:59:10;8.47;;;7.03;;
27802;SDS011;15182;48.174;11.562;2022-10-13T11:01:57;17.37;;;6.70;;
27802;SDS011;15182;48.174;11.562;2022-10-13T11:04:39;6.93;;;6.27;;
27802;SDS011;15182;48.174;11.562;2022-10-13T11:07:16;10.03;;;6.73;;
27802;SDS011;15182;48.174;11.562;2022-10-13T11:10:24;7.30;;;6.60;;
27802;SDS011;15182;48.174;11.562;2022-10-13T11:15:50;6.73;;;6.10;;
27802;SDS011;15182;48.174;11.562;2022-10-13T11:25:00;12.20;;;6.70;;
27802;SDS011;15182;48.174;11.562;2022-10-13T11:31:24;8.97;;;6.40;;
27802;SDS011;15182;48.174;11.562;2022-10-13T11:34:19;9.80;;;6.63;;
27802;SDS011;15182;48.174;11.562;2022-10-13T11:36:59;10.07;;;6.23;;
27802;SDS011;15182;48.174;11.562;2022-10-13T11:42:44;10.47;;;6.70;;
27802;SDS011;15182;48.174;11.562;2022-10-13T11:45:58;6.47;;;5.70;;
27802;SDS011;15182;48.174;11.562;2022-10-13T11:48:55;7.07;;;6.00;;
27802;SDS011;15182;48.174;11.562;2022-10-13T11:52:02;13.43;;;6.32;;
27802;SDS011;15182;48.174;11.562;2022-10-13T11:54:47;7.67;;;6.13;;
27802;SDS011;15182;48.174;11.562;2022-10-13T11:57:26;8.97;;;6.33;;
27802;SDS011;15182;48.174;11.562;2022-10-13T12:00:03;6.00;;;5.47;;
27802;SDS011;15182;48.174;11.562;2022-10-13T12:02:48;6.43;;;5.87;;
27802;SDS011;15182;48.174;11.562;2022-10-13T12:05:22;7.07;;;6.33;;
27802;SDS011;15182;48.174;11.562;2022-10-13T12:07:58;7.47;;;6.30;;
27802;SDS011;15182;48.174;11.562;2022-10-13T12:10:34;12.60;;;7.03;;
27802;SDS011;15182;48.174;11.562;2022-10-13T12:13:15;6.93;;;6.30;;
27802;SDS011;15182;48.174;11.562;2022-10-13T12:15:56;11.30;;;6.33;;
27802;SDS011;15182;48.174;11.562;2022-10-13T12:18:31;16.08;;;6.22;;
27802;SDS011;15182;48.174;11.562;2022-10-13T12:21:08;8.73;;;6.10;;
27802;SDS011;15182;48.174;11.562;2022-10-13T12:23:42;9.93;;;6.30;;
27802;SDS011;15182;48.174;11.562;2022-10-13T12:26:14;6.00;;;5.50;;
27802;SDS011;15182;48.174;11.562;2022-10-13T12:28:49;7.57;;;5.37;;
27802;SDS011;15182;48.174;11.562;2022-10-13T12:31:27;5.97;;;4.80;;
27802;SDS011;15182;48.174;11.562;2022-10-13T12:34:16;5.43;;;4.93;;
27802;SDS011;15182;48.174;11.562;2022-10-13T12:36:54;6.43;;;5.80;;
27802;SDS011;15182;48.174;11.562;2022-10-13T12:39:29;5.93;;;5.33;;
27802;SDS011;15182;48.174;11.562;2022-10-13T12:42:02;6.33;;;5.73;;
27802;SDS011;15182;48.174;11.562;2022-10-13T12:44:39;11.47;;;5.90;;
27802;SDS011;15182;48.174;11.562;2022-10-13T12:50:22;7.27;;;5.57;;
27802;SDS011;15182;48.174;11.562;2022-10-13T12:53:08;7.90;;;5.63;;
27802;SDS011;15182;48.174;11.562;2022-10-13T12:55:45;7.37;;;6.30;;
27802;SDS011;15182;48.174;11.562;2022-10-13T12:58:17;7.43;;;6.20;;
27802;SDS011;15182;48.174;11.562;2022-10-13T13:00:57;8.23;;;5.87;;
27802;SDS011;15182;48.174;11.562;2022-10-13T13:03:52;10.15;;;6.32;;
27802;SDS011;15182;48.174;11.562;2022-10-13T13:06:29;8.83;;;5.77;;
27802;SDS011;15182;48.174;11.562;2022-10-13T13:09:14;6.37;;;5.77;;
27802;SDS011;15182;48.174;11.562;2022-10-13T13:12:02;6.43;;;5.83;;
27802;SDS011;15182;48.174;11.562;2022-10-13T13:14:49;14.97;;;5.40;;
27802;SDS011;15182;48.174;11.562;2022-10-13T13:17:23;6.40;;;5.80;;
27802;SDS011;15182;48.174;11.562;2022-10-13T13:19:56;7.50;;;5.40;;
27802;SDS011;15182;48.174;11.562;2022-10-13T13:22:27;10.17;;;5.90;;
27802;SDS011;15182;48.174;11.562;2022-10-13T13:24:59;8.00;;;5.83;;
27802;SDS011;15182;48.174;11.562;2022-10-13T13:27:33;8.07;;;4.87;;
27802;SDS011;15182;48.174;11.562;2022-10-13T13:30:08;6.53;;;4.87;;
27802;SDS011;15182;48.174;11.562;2022-10-13T13:32:40;5.73;;;5.23;;
27802;SDS011;15182;48.174;11.562;2022-10-13T13:35:13;6.57;;;5.22;;
27802;SDS011;15182;48.174;11.562;2022-10-13T13:37:45;10.03;;;6.27;;
27802;SDS011;15182;48.174;11.562;2022-10-13T13:40:18;10.03;;;5.40;;
27802;SDS011;15182;48.174;11.562;2022-10-13T13:42:52;7.20;;;4.90;;
27802;SDS011;15182;48.174;11.562;2022-10-13T13:45:30;8.97;;;5.33;;
27802;SDS011;15182;48.174;11.562;2022-10-13T13:48:03;6.03;;;4.47;;
27802;SDS011;15182;48.174;11.562;2022-10-13T13:50:39;13.33;;;5.90;;
27802;SDS011;15182;48.174;11.562;2022-10-13T13:53:10;12.10;;;5.27;;
27802;SDS011;15182;48.174;11.562;2022-10-13T13:55:41;5.57;;;5.10;;
27802;SDS011;15182;48.174;11.562;2022-10-13T13:58:17;7.97;;;5.23;;
27802;SDS011;15182;48.174;11.562;2022-10-13T14:00:51;5.13;;;4.73;;
27802;SDS011;15182;48.174;11.562;2022-10-13T14:03:22;8.83;;;5.50;;
27802;SDS011;15182;48.174;11.562;2022-10-13T14:05:54;9.60;;;5.60;;
27802;SDS011;15182;48.174;11.562;2022-10-13T14:08:28;5.80;;;5.40;;
27802;SDS011;15182;48.174;11.562;2022-10-13T14:11:04;5.57;;;5.10;;
27802;SDS011;15182;48.174;11.562;2022-10-13T14:13:36;5.03;;;4.73;;
27802;SDS011;15182;48.174;11.562;2022-10-13T14:16:10;8.50;;;4.37;;
27802;SDS011;15182;48.174;11.562;2022-10-13T14:18:45;7.50;;;4.80;;
27802;SDS011;15182;48.174;11.562;2022-10-13T14:21:17;8.13;;;5.23;;
27802;SDS011;15182;48.174;11.562;2022-10-13T14:23:49;6.07;;;5.50;;
27802;SDS011;15182;48.174;11.562;2022-10-13T14:26:20;6.20;;;4.90;;
27802;SDS011;15182;48.174;11.562;2022-10-13T14:28:50;5.70;;;5.23;;
27802;SDS011;15182;48.174;11.562;2022-10-13T14:31:22;5.37;;;4.87;;
27802;SDS011;15182;48.174;11.562;2022-10-13T14:33:53;5.57;;;5.07;;
27802;SDS011;15182;48.174;11.562;2022-10-13T14:36:28;9.70;;;5.27;;
27802;SDS011;15182;48.174;11.562;2022-10-13T14:38:59;7.20;;;4.67;;
27802;SDS011;15182;48.174;11.562;2022-10-13T14:41:32;6.10;;;5.27;;
27802;SDS011;15182;48.174;11.562;2022-10-13T14:44:03;7.97;;;5.23;;
27802;SDS011;15182;48.174;11.562;2022-10-13T14:46:35;5.77;;;5.37;;
27802;SDS011;15182;48.174;11.562;2022-10-13T14:49:08;6.13;;;5.57;;
27802;SDS011;15182;48.174;11.562;2022-10-13T14:51:42;5.50;;;5.00;;
27802;SDS011;15182;48.174;11.562;2022-10-13T14:54:15;6.60;;;4.93;;
27802;SDS011;15182;48.174;11.562;2022-10-13T14:56:46;4.67;;;4.27;;
27802;SDS011;15182;48.174;11.562;2022-10-13T14:59:18;8.33;;;4.73;;
27802;SDS011;15182;48.174;11.562;2022-10-13T15:01:50;4.73;;;4.30;;
27802;SDS011;15182;48.174;11.562;2022-10-13T15:04:23;4.73;;;4.10;;
27802;SDS011;15182;48.174;11.562;2022-10-13T15:06:55;4.50;;;4.03;;
27802;SDS011;15182;48.174;11.562;2022-10-13T15:09:29;4.73;;;4.27;;
27802;SDS011;15182;48.174;11.562;2022-10-13T15:12:00;5.57;;;4.70;;
27802;SDS011;15182;48.174;11.562;2022-10-13T15:14:33;11.13;;;5.17;;
27802;SDS011;15182;48.174;11.562;2022-10-13T15:17:04;5.57;;;4.97;;
27802;SDS011;15182;48.174;11.562;2022-10-13T15:19:35;5.10;;;4.67;;
27802;SDS011;15182;48.174;11.562;2022-10-13T15:22:09;5.03;;;4.60;;
27802;SDS011;15182;48.174;11.562;2022-10-13T15:24:40;5.57;;;4.77;;
27802;SDS011;15182;48.174;11.562;2022-10-13T15:27:12;6.87;;;5.17;;
27802;SDS011;15182;48.174;11.562;2022-10-13T15:29:43;8.30;;;5.50;;
27802;SDS011;15182;48.174;11.562;2022-10-13T15:32:15;4.40;;;4.17;;
27802;SDS011;15182;48.174;11.562;2022-10-13T15:34:53;5.87;;;4.83;;
27802;SDS011;15182;48.174;11.562;2022-10-13T15:37:27;6.73;;;5.03;;
27802;SDS011;15182;48.174;11.562;2022-10-13T15:39:59;9.57;;;4.97;;